createdAt,value
2022-12-15T00:01:48.823Z,-5.30
2022-12-15T00:07:09.961Z,-5.10
2022-12-15T00:12:30.862Z,-5.30
2022-12-15T00:17:51.997Z,-5.60
2022-12-15T00:23:13.005Z,-5.40
2022-12-15T00:28:34.162Z,-5.40
2022-12-15T00:33:55.179Z,-5.70
2022-12-15T00:39:03.385Z,-5.70
2022-12-15T00:44:06.288Z,-5.40
2022-12-15T00:49:28.613Z,-5.50
2022-12-15T00:54:49.727Z,-5.40
2022-12-15T01:00:10.804Z,-5.20
2022-12-15T01:05:32.045Z,-5.20
2022-12-15T01:10:53.129Z,-5.30
2022-12-15T01:16:14.384Z,-5.40
2022-12-15T01:21:16.763Z,-5.40
2022-12-15T01:26:19.495Z,-5.60
2022-12-15T01:31:22.159Z,-5.80
2022-12-15T01:36:25.045Z,-5.50
2022-12-15T01:41:27.754Z,-5.70
2022-12-15T01:46:30.211Z,-5.80
2022-12-15T01:51:35.406Z,-5.80
2022-12-15T01:56:47.401Z,-5.50
2022-12-15T02:01:50.420Z,-5.90
2022-12-15T02:06:53.176Z,-5.90
2022-12-15T02:12:07.635Z,-5.80
2022-12-15T02:17:32.791Z,-6.10
2022-12-15T02:22:53.802Z,-5.90
2022-12-15T02:28:01.750Z,-6.20
2022-12-15T02:33:27.732Z,-6.10
2022-12-15T02:38:36.580Z,-6.30
2022-12-15T02:43:39.642Z,-6.30
2022-12-15T02:49:01.583Z,-6.00
2022-12-15T02:54:15.547Z,-6.40
2022-12-15T03:00:02.547Z,-6.20
2022-12-15T03:05:05.138Z,-6.40
2022-12-15T03:10:08.311Z,-6.40
2022-12-15T03:15:11.072Z,-6.70
2022-12-15T03:20:13.466Z,-6.80
2022-12-15T03:25:15.835Z,-7.00
2022-12-15T03:30:18.353Z,-6.60
2022-12-15T03:35:21.183Z,-6.70
2022-12-15T03:40:23.574Z,-7.10
2022-12-15T03:45:27.743Z,-6.80
2022-12-15T03:50:30.392Z,-7.00
2022-12-15T03:55:32.742Z,-6.90
2022-12-15T04:00:35.044Z,-6.90
2022-12-15T04:05:37.962Z,-7.20
2022-12-15T04:10:40.203Z,-7.40
2022-12-15T04:15:42.464Z,-7.20
2022-12-15T04:20:44.701Z,-6.90
2022-12-15T04:26:05.641Z,-7.00
2022-12-15T04:31:35.991Z,-7.00
2022-12-15T04:36:59.184Z,-7.10
2022-12-15T04:42:21.253Z,-7.10
2022-12-15T04:47:42.375Z,-6.80
2022-12-15T04:53:03.338Z,-7.00
2022-12-15T04:58:28.432Z,-7.20
2022-12-15T05:03:49.567Z,-7.20
2022-12-15T05:09:10.502Z,-7.30
2022-12-15T05:14:31.603Z,-7.50
2022-12-15T05:19:52.593Z,-7.20
2022-12-15T05:25:13.738Z,-7.30
2022-12-15T05:30:34.924Z,-7.20
2022-12-15T05:35:37.163Z,-7.40
2022-12-15T05:40:39.843Z,-7.50
2022-12-15T05:45:42.054Z,-7.50
2022-12-15T05:50:44.803Z,-7.40
2022-12-15T05:55:47.065Z,-7.30
2022-12-15T06:00:49.324Z,-7.40
2022-12-15T06:05:56.320Z,-7.50
2022-12-15T06:10:58.993Z,-7.40
2022-12-15T06:16:06.719Z,-7.70
2022-12-15T06:21:12.400Z,-7.70
2022-12-15T06:26:16.143Z,-7.90
2022-12-15T06:31:22.782Z,-8.10
2022-12-15T06:36:25.306Z,-7.40
2022-12-15T06:41:30.860Z,-7.20
2022-12-15T06:46:35.057Z,-7.60
2022-12-15T06:51:37.653Z,-7.50
2022-12-15T06:56:40.295Z,-7.30
2022-12-15T07:01:43.200Z,-7.60
2022-12-15T07:06:45.717Z,-7.80
2022-12-15T07:11:50.359Z,-7.90
2022-12-15T07:16:52.596Z,-7.70
2022-12-15T07:21:57.638Z,-7.60
2022-12-15T07:26:59.890Z,-7.40
2022-12-15T07:32:02.195Z,-7.30
2022-12-15T07:37:04.581Z,-7.50
2022-12-15T07:42:07.311Z,-7.50
2022-12-15T07:47:09.534Z,-7.40
2022-12-15T07:52:14.038Z,-7.20
2022-12-15T07:57:16.505Z,-7.00
2022-12-15T08:02:18.891Z,-7.00
2022-12-15T08:07:22.110Z,-6.40
2022-12-15T08:12:24.360Z,-6.10
2022-12-15T08:17:26.611Z,-6.00
2022-12-15T08:22:28.864Z,-6.00
2022-12-15T08:27:31.151Z,-5.80
2022-12-15T08:32:33.408Z,-5.80
2022-12-15T08:37:35.687Z,-5.70
2022-12-15T08:42:40.093Z,-5.80
2022-12-15T08:47:42.318Z,-5.70
2022-12-15T08:53:06.565Z,-5.40
2022-12-15T08:58:07.392Z,-5.30
2022-12-15T09:03:09.696Z,-5.00
2022-12-15T09:08:12.060Z,-5.00
2022-12-15T09:13:14.288Z,-4.80
2022-12-15T09:18:16.536Z,-4.60
2022-12-15T09:23:18.826Z,-4.40
2022-12-15T09:28:21.053Z,-4.30
2022-12-15T09:33:23.371Z,-4.10
2022-12-15T09:38:26.026Z,-4.00
2022-12-15T09:43:46.249Z,-3.80
2022-12-15T09:48:51.618Z,-3.60
2022-12-15T09:53:55.494Z,-3.60
2022-12-15T09:59:09.707Z,-3.50
2022-12-15T10:04:23.177Z,-3.50
2022-12-15T10:09:28.967Z,-3.40
2022-12-15T10:14:43.048Z,-3.20
2022-12-15T10:20:04.532Z,-2.90
2022-12-15T10:25:29.456Z,-2.70
2022-12-15T10:30:33.804Z,-2.60
2022-12-15T10:35:37.175Z,-2.50
2022-12-15T10:40:50.426Z,-2.30
2022-12-15T10:46:13.567Z,-2.30
2022-12-15T10:51:37.216Z,-2.30
2022-12-15T10:56:55.271Z,-2.20
2022-12-15T11:02:24.081Z,-2.10
2022-12-15T11:08:12.398Z,-2.00
2022-12-15T11:13:20.194Z,-1.80
2022-12-15T11:18:39.114Z,-1.70
2022-12-15T11:24:00.385Z,-1.60
2022-12-15T11:29:36.672Z,-1.60
2022-12-15T11:34:44.502Z,-1.40
2022-12-15T11:40:19.764Z,-1.30
2022-12-15T11:45:30.215Z,-1.30
2022-12-15T11:50:53.928Z,-1.40
2022-12-15T11:56:21.619Z,-1.30
2022-12-15T12:01:39.255Z,-1.40
2022-12-15T12:07:02.136Z,-1.50
2022-12-15T12:12:30.276Z,-1.50
2022-12-15T12:17:46.029Z,-1.70
2022-12-15T12:23:02.650Z,-1.70
2022-12-15T12:28:07.145Z,-1.80
2022-12-15T12:35:30.981Z,-1.80
2022-12-15T12:40:57.338Z,-1.70
2022-12-15T12:46:10.071Z,-1.80
2022-12-15T12:51:27.681Z,-1.70
2022-12-15T12:56:42.126Z,-1.70
2022-12-15T13:01:44.502Z,-1.80
2022-12-15T13:06:46.880Z,-1.80
2022-12-15T13:11:49.400Z,-1.90
2022-12-15T13:17:25.304Z,-1.90
2022-12-15T13:22:39.997Z,-1.90
2022-12-15T13:27:42.834Z,-1.90
2022-12-15T13:32:47.136Z,-1.90
2022-12-15T13:37:52.077Z,-1.80
2022-12-15T13:43:06.216Z,-1.80
2022-12-15T13:48:20.456Z,-1.80
2022-12-15T13:53:26.192Z,-1.80
2022-12-15T13:58:33.824Z,-1.70
2022-12-15T14:03:37.225Z,-1.60
2022-12-15T14:08:39.817Z,-1.50
2022-12-15T14:13:42.272Z,-1.50
2022-12-15T14:18:45.628Z,-1.70
2022-12-15T14:24:19.241Z,-1.80
2022-12-15T14:29:10.470Z,-1.90
2022-12-15T14:34:19.165Z,-1.90
2022-12-15T14:39:30.379Z,-1.90
2022-12-15T14:44:39.320Z,-1.90
2022-12-15T14:49:45.258Z,-1.90
2022-12-15T14:54:53.894Z,-2.20
2022-12-15T15:00:00.021Z,-2.00
2022-12-15T15:05:07.333Z,-2.20
2022-12-15T15:10:23.306Z,-2.40
2022-12-15T15:15:26.650Z,-2.40
2022-12-15T15:20:32.533Z,-2.30
2022-12-15T15:25:41.326Z,-2.30
2022-12-15T15:30:56.324Z,-2.20
2022-12-15T15:36:01.786Z,-2.20
2022-12-15T15:41:22.025Z,-2.20
2022-12-15T15:46:29.853Z,-2.20
2022-12-15T15:51:33.563Z,-2.30
2022-12-15T15:56:36.419Z,-2.20
2022-12-15T16:01:38.862Z,-2.20
2022-12-15T16:06:46.907Z,-2.20
2022-12-15T16:11:50.740Z,-2.20
2022-12-15T16:16:54.649Z,-2.20
2022-12-15T16:21:56.959Z,-2.10
2022-12-15T16:26:59.227Z,-2.20
2022-12-15T16:32:01.451Z,-2.10
2022-12-15T16:37:04.734Z,-2.20
2022-12-15T16:42:11.971Z,-2.00
2022-12-15T16:47:14.399Z,-2.00
2022-12-15T16:52:21.036Z,-2.10
2022-12-15T16:57:23.902Z,-2.00
2022-12-15T17:02:29.991Z,-2.10
2022-12-15T17:07:32.588Z,-2.20
2022-12-15T17:12:34.980Z,-2.20
2022-12-15T17:17:37.220Z,-2.10
2022-12-15T17:22:39.462Z,-2.10
2022-12-15T17:27:42.113Z,-2.20
2022-12-15T17:32:44.611Z,-2.30
2022-12-15T17:37:46.884Z,-2.50
2022-12-15T17:42:50.116Z,-2.60
2022-12-15T17:47:52.977Z,-2.80
2022-12-15T17:52:55.280Z,-3.00
2022-12-15T17:57:59.525Z,-3.20
2022-12-15T18:03:02.091Z,-3.70
2022-12-15T18:08:14.027Z,-4.00
2022-12-15T18:13:23.072Z,-4.20
2022-12-15T18:18:26.120Z,-4.40
2022-12-15T18:23:31.097Z,-4.50
2022-12-15T18:28:35.221Z,-4.60
2022-12-15T18:33:37.438Z,-4.80
2022-12-15T18:38:40.037Z,-4.50
2022-12-15T18:43:43.169Z,-4.70
2022-12-15T18:48:45.874Z,-4.80
2022-12-15T18:53:49.098Z,-5.10
2022-12-15T18:58:51.529Z,-5.20
2022-12-15T19:03:53.850Z,-5.50
2022-12-15T19:08:56.146Z,-5.40
2022-12-15T19:14:02.931Z,-5.30
2022-12-15T19:19:24.006Z,-5.40
2022-12-15T19:24:47.664Z,-5.70
2022-12-15T19:29:50.956Z,-5.80
2022-12-15T19:34:53.205Z,-5.70
2022-12-15T19:40:00.400Z,-5.90
2022-12-15T19:45:17.540Z,-5.90
2022-12-15T19:50:25.903Z,-6.20
2022-12-15T19:55:32.745Z,-6.40
2022-12-15T20:00:35.688Z,-6.30
2022-12-15T20:05:38.188Z,-6.20
2022-12-15T20:10:40.933Z,-6.00
2022-12-15T20:15:43.323Z,-6.20
2022-12-15T20:20:47.602Z,-6.50
2022-12-15T20:25:49.922Z,-6.50
2022-12-15T20:30:53.043Z,-6.50
2022-12-15T20:35:55.335Z,-6.50
2022-12-15T20:40:59.067Z,-6.30
2022-12-15T20:46:06.739Z,-6.70
2022-12-15T20:51:15.827Z,-6.60
2022-12-15T20:56:20.771Z,-6.90
2022-12-15T21:01:26.749Z,-6.50
2022-12-15T21:06:30.362Z,-6.50
2022-12-15T21:11:33.039Z,-6.80
2022-12-15T21:16:35.368Z,-6.60
2022-12-15T21:21:40.750Z,-6.40
2022-12-15T21:26:43.203Z,-6.80
2022-12-15T21:31:46.292Z,-7.10
2022-12-15T21:36:52.323Z,-7.10
2022-12-15T21:42:00.722Z,-6.90
2022-12-15T21:47:21.949Z,-7.00
2022-12-15T21:52:26.653Z,-7.30
2022-12-15T21:57:28.874Z,-7.00
2022-12-15T22:02:32.032Z,-7.20
2022-12-15T22:07:34.364Z,-7.20
2022-12-15T22:12:37.011Z,-7.50
2022-12-15T22:17:39.254Z,-7.20
2022-12-15T22:22:41.584Z,-7.20
2022-12-15T22:27:44.760Z,-7.30
2022-12-15T22:32:47.501Z,-7.30
2022-12-15T22:37:53.385Z,-7.50
2022-12-15T22:42:58.097Z,-7.70
2022-12-15T22:48:00.683Z,-7.80
2022-12-15T22:53:02.949Z,-7.50
2022-12-15T22:58:10.811Z,-7.50
2022-12-15T23:03:13.956Z,-7.20
2022-12-15T23:08:16.250Z,-7.20
2022-12-15T23:13:18.558Z,-7.50
2022-12-15T23:18:20.846Z,-7.50
2022-12-15T23:23:23.532Z,-7.50
2022-12-15T23:28:25.818Z,-7.70
2022-12-15T23:33:29.873Z,-7.60
2022-12-15T23:38:35.399Z,-7.60
2022-12-15T23:43:37.774Z,-7.50
2022-12-15T23:48:43.620Z,-7.20
2022-12-15T23:53:47.391Z,-7.30
2022-12-15T23:58:55.983Z,-7.30
